Diamond Island, Maine
Current Conditions -  °F | °C
As of 10:51 PM on Thursday 20 Nov 2014 (Local Time) from KPWM Reporting Station
Few Clouds Few Clouds  
Wind Chill: 23°   Ceiling: Unl
Heat Index: 31°   Visibility: 10mi
Dew Point:   Wind: 9mph
Humidity: 40%   Direction: 270°W
Pressure: 29.86"   Gusts: NA
Location:  43.6801°N, 70.1969°W
Report Text: KPWM 210351Z 27008KT 10SM FEW110 M01/M13 A2986 RMK AO2 SLP112 T10061128
Loading
Personal Weather Stations






























Interactive Weather Map New forecast layout! Learn more

10-Day Weather Forecast

Advertisements
Track Severe Weather on mobile